createdAt,value
2023-09-29T00:00:18.974Z,6.17
2023-09-29T00:02:48.631Z,3.60
2023-09-29T00:05:18.933Z,5.30
2023-09-29T00:07:46.478Z,6.00
2023-09-29T00:10:18.528Z,4.27
2023-09-29T00:12:47.103Z,4.77
2023-09-29T00:15:14.128Z,5.87
2023-09-29T00:17:42.266Z,3.47
2023-09-29T00:20:22.709Z,2.77
2023-09-29T00:22:51.595Z,4.87
2023-09-29T00:25:19.955Z,3.67
2023-09-29T00:27:48.089Z,3.50
2023-09-29T00:30:18.951Z,5.87
2023-09-29T00:32:50.379Z,5.53
2023-09-29T00:35:26.310Z,5.37
2023-09-29T00:37:59.459Z,3.97
2023-09-29T00:40:28.641Z,6.40
2023-09-29T00:42:56.406Z,3.67
2023-09-29T00:45:25.217Z,4.63
2023-09-29T00:47:58.553Z,3.53
2023-09-29T00:50:31.213Z,3.43
2023-09-29T00:53:01.292Z,6.00
2023-09-29T00:55:31.470Z,2.90
2023-09-29T00:58:00.446Z,6.00
2023-09-29T01:00:34.174Z,5.93
2023-09-29T01:03:07.239Z,4.03
2023-09-29T01:05:45.863Z,5.03
2023-09-29T01:08:19.100Z,4.13
2023-09-29T01:10:45.834Z,4.10
2023-09-29T01:13:13.843Z,3.63
2023-09-29T01:15:41.006Z,4.37
2023-09-29T01:18:10.714Z,4.40
2023-09-29T01:20:39.093Z,4.33
2023-09-29T01:25:33.493Z,6.30
2023-09-29T01:28:02.705Z,3.70
2023-09-29T01:30:29.458Z,4.00
2023-09-29T01:33:00.387Z,3.37
2023-09-29T01:35:28.669Z,5.40
2023-09-29T01:37:57.116Z,4.20
2023-09-29T01:40:24.411Z,7.07
2023-09-29T01:42:52.555Z,3.70
2023-09-29T01:45:20.174Z,4.67
2023-09-29T01:47:48.497Z,4.17
2023-09-29T01:50:17.844Z,4.03
2023-09-29T01:52:45.934Z,3.60
2023-09-29T01:55:17.845Z,4.80
2023-09-29T01:57:44.941Z,6.30
2023-09-29T02:00:16.002Z,5.27
2023-09-29T02:02:45.013Z,5.80
2023-09-29T02:05:12.949Z,2.60
2023-09-29T02:07:41.977Z,3.37
2023-09-29T02:10:09.288Z,5.50
2023-09-29T02:12:43.136Z,3.97
2023-09-29T02:15:10.249Z,3.77
2023-09-29T02:17:38.022Z,4.00
2023-09-29T02:20:13.112Z,4.27
2023-09-29T02:22:40.734Z,5.53
2023-09-29T02:25:10.727Z,4.90
2023-09-29T02:27:38.000Z,4.13
2023-09-29T02:30:05.705Z,5.50
2023-09-29T02:32:32.514Z,4.40
2023-09-29T02:34:59.332Z,4.90
2023-09-29T02:37:26.371Z,4.13
2023-09-29T02:39:53.162Z,3.83
2023-09-29T02:42:19.827Z,3.93
2023-09-29T02:44:47.385Z,3.60
2023-09-29T02:47:15.812Z,5.50
2023-09-29T02:49:42.677Z,4.33
2023-09-29T02:52:09.445Z,6.60
2023-09-29T02:54:36.707Z,5.13
2023-09-29T02:57:04.013Z,6.00
2023-09-29T02:59:34.932Z,4.50
2023-09-29T03:02:06.966Z,3.70
2023-09-29T03:04:34.000Z,3.53
2023-09-29T03:07:01.061Z,4.03
2023-09-29T03:09:30.139Z,4.17
2023-09-29T03:12:00.725Z,6.60
2023-09-29T03:14:27.997Z,6.63
2023-09-29T03:16:55.174Z,6.90
2023-09-29T03:19:22.550Z,6.20
2023-09-29T03:21:49.715Z,3.73
2023-09-29T03:24:16.898Z,5.17
2023-09-29T03:26:45.993Z,7.40
2023-09-29T03:29:12.725Z,2.67
2023-09-29T03:31:40.337Z,4.83
2023-09-29T03:34:07.980Z,4.20
2023-09-29T03:36:34.896Z,4.57
2023-09-29T03:39:06.181Z,6.40
2023-09-29T03:41:34.388Z,4.90
2023-09-29T03:44:01.579Z,4.60
2023-09-29T03:46:30.284Z,3.60
2023-09-29T03:48:57.416Z,5.20
2023-09-29T03:51:25.267Z,5.00
2023-09-29T03:53:53.886Z,3.63
2023-09-29T03:56:24.164Z,5.00
2023-09-29T03:58:57.320Z,6.83
2023-09-29T04:01:24.340Z,3.73
2023-09-29T04:03:51.175Z,3.63
2023-09-29T04:06:18.073Z,4.00
2023-09-29T04:08:44.990Z,4.43
2023-09-29T04:11:11.919Z,4.37
2023-09-29T04:13:38.783Z,3.40
2023-09-29T04:16:06.601Z,5.27
2023-09-29T04:18:33.850Z,4.50
2023-09-29T04:21:05.207Z,4.23
2023-09-29T04:23:32.696Z,4.63
2023-09-29T04:25:59.590Z,3.57
2023-09-29T04:28:26.688Z,3.33
2023-09-29T04:30:53.456Z,4.30
2023-09-29T04:33:20.266Z,3.90
2023-09-29T04:35:47.095Z,4.30
2023-09-29T04:38:13.826Z,3.43
2023-09-29T04:40:41.077Z,5.40
2023-09-29T04:43:07.864Z,3.77
2023-09-29T04:45:35.199Z,5.97
2023-09-29T04:48:03.245Z,4.47
2023-09-29T04:50:30.606Z,4.40
2023-09-29T04:52:57.910Z,7.57
2023-09-29T04:55:24.652Z,7.10
2023-09-29T04:57:53.651Z,5.43
2023-09-29T05:00:20.827Z,4.10
2023-09-29T05:02:48.006Z,5.17
2023-09-29T05:05:15.074Z,4.30
2023-09-29T05:07:44.491Z,4.57
2023-09-29T05:10:12.444Z,3.33
2023-09-29T05:12:39.331Z,3.47
2023-09-29T05:15:06.786Z,5.80
2023-09-29T05:17:44.877Z,3.10
2023-09-29T05:20:15.504Z,3.73
2023-09-29T05:22:42.247Z,4.60
2023-09-29T05:25:09.931Z,4.27
2023-09-29T05:27:36.760Z,3.47
2023-09-29T05:30:04.356Z,3.97
2023-09-29T05:32:32.453Z,3.00
2023-09-29T05:34:59.589Z,7.07
2023-09-29T05:37:26.404Z,3.57
2023-09-29T05:39:53.908Z,3.83
2023-09-29T05:42:30.361Z,5.37
2023-09-29T05:45:00.690Z,3.13
2023-09-29T05:47:27.674Z,3.80
2023-09-29T05:50:03.367Z,4.70
2023-09-29T05:52:33.830Z,3.97
2023-09-29T05:55:00.488Z,4.53
2023-09-29T05:57:28.718Z,3.27
2023-09-29T05:59:56.061Z,5.10
2023-09-29T06:02:22.917Z,7.40
2023-09-29T06:04:49.655Z,5.23
2023-09-29T06:07:16.333Z,5.97
2023-09-29T06:09:43.017Z,3.93
2023-09-29T06:12:09.749Z,4.00
2023-09-29T06:14:36.833Z,3.83
2023-09-29T06:17:03.534Z,4.80
2023-09-29T06:19:30.295Z,5.47
2023-09-29T06:21:57.266Z,4.80
2023-09-29T06:24:24.029Z,3.70
2023-09-29T06:26:51.429Z,3.63
2023-09-29T06:29:18.234Z,5.23
2023-09-29T06:31:45.440Z,3.77
2023-09-29T06:34:12.113Z,3.23
2023-09-29T06:36:39.736Z,5.33
2023-09-29T06:39:06.579Z,5.17
2023-09-29T06:41:33.597Z,3.40
2023-09-29T06:44:00.290Z,5.93
2023-09-29T06:46:27.039Z,3.97
2023-09-29T06:48:54.332Z,3.57
2023-09-29T06:51:21.118Z,6.73
2023-09-29T06:53:49.543Z,4.07
2023-09-29T06:56:17.576Z,5.57
2023-09-29T06:58:44.303Z,8.27
2023-09-29T07:01:10.984Z,5.30
2023-09-29T07:03:37.879Z,6.07
2023-09-29T07:06:04.796Z,4.63
2023-09-29T07:08:31.633Z,3.53
2023-09-29T07:10:58.741Z,3.40
2023-09-29T07:13:25.530Z,3.10
2023-09-29T07:15:52.226Z,4.10
2023-09-29T07:18:19.075Z,5.77
2023-09-29T07:20:46.573Z,8.57
2023-09-29T07:23:13.371Z,4.17
2023-09-29T07:25:40.697Z,5.27
2023-09-29T07:28:14.732Z,4.20
2023-09-29T07:30:45.744Z,7.20
2023-09-29T07:33:13.054Z,4.30
2023-09-29T07:35:40.306Z,5.70
2023-09-29T07:38:07.448Z,6.20
2023-09-29T07:40:35.937Z,5.20
2023-09-29T07:43:03.411Z,4.00
2023-09-29T07:45:30.095Z,4.83
2023-09-29T07:47:56.912Z,9.83
2023-09-29T07:50:24.136Z,8.50
2023-09-29T07:52:50.865Z,12.50
2023-09-29T07:55:17.631Z,9.67
2023-09-29T07:57:44.373Z,10.47
2023-09-29T08:00:13.037Z,6.63
2023-09-29T08:02:40.606Z,15.03
2023-09-29T08:05:10.598Z,10.70
2023-09-29T08:07:37.416Z,7.60
2023-09-29T08:10:04.285Z,7.43
2023-09-29T08:12:30.970Z,9.63
2023-09-29T08:14:57.773Z,7.40
2023-09-29T08:17:27.041Z,8.73
2023-09-29T08:19:53.758Z,7.70
2023-09-29T08:22:26.477Z,7.10
2023-09-29T08:25:08.898Z,6.93
2023-09-29T08:27:36.951Z,5.53
2023-09-29T08:30:05.631Z,5.73
2023-09-29T08:32:32.756Z,5.10
2023-09-29T08:34:59.614Z,7.70
2023-09-29T08:37:26.402Z,5.57
2023-09-29T08:39:54.531Z,5.50
2023-09-29T08:42:39.098Z,5.80
2023-09-29T08:45:10.931Z,6.93
2023-09-29T08:47:39.243Z,5.00
2023-09-29T08:50:10.461Z,4.40
2023-09-29T08:52:37.988Z,3.70
2023-09-29T08:55:05.166Z,3.30
2023-09-29T08:57:32.070Z,4.93
2023-09-29T09:00:01.477Z,3.57
2023-09-29T09:02:28.672Z,3.70
2023-09-29T09:04:55.794Z,3.77
2023-09-29T09:07:22.974Z,11.07
2023-09-29T09:09:51.207Z,6.80
2023-09-29T09:12:18.406Z,5.57
2023-09-29T09:14:46.139Z,3.80
2023-09-29T09:17:13.165Z,6.03
2023-09-29T09:19:52.131Z,4.73
2023-09-29T09:22:35.030Z,3.07
2023-09-29T09:25:12.368Z,4.20
2023-09-29T09:27:44.615Z,3.27
2023-09-29T09:30:30.098Z,7.80
2023-09-29T09:32:56.980Z,6.47
2023-09-29T09:35:28.917Z,4.93
2023-09-29T09:37:57.216Z,4.00
2023-09-29T09:40:27.442Z,5.70
2023-09-29T09:42:55.062Z,4.73
2023-09-29T09:45:26.458Z,3.40
2023-09-29T09:48:00.478Z,2.57
2023-09-29T09:50:31.820Z,4.37
2023-09-29T09:53:00.812Z,6.33
2023-09-29T09:55:51.633Z,7.17
2023-09-29T09:58:22.120Z,6.87
2023-09-29T10:00:51.543Z,4.07
2023-09-29T10:03:18.894Z,5.73
2023-09-29T10:05:53.003Z,4.57
2023-09-29T10:08:34.284Z,4.10
2023-09-29T10:11:15.586Z,2.73
2023-09-29T10:13:46.564Z,4.13
2023-09-29T10:16:24.410Z,3.07
2023-09-29T10:19:07.189Z,14.50
2023-09-29T10:21:44.086Z,8.80
2023-09-29T10:24:14.350Z,5.73
2023-09-29T10:26:46.185Z,2.63
2023-09-29T10:29:20.842Z,4.20
2023-09-29T10:31:49.917Z,4.70
2023-09-29T10:34:22.265Z,3.57
2023-09-29T10:36:56.679Z,3.87
2023-09-29T10:39:27.789Z,5.77
2023-09-29T10:42:13.888Z,3.90
2023-09-29T10:44:49.918Z,8.03
2023-09-29T10:47:17.891Z,3.63
2023-09-29T10:49:47.970Z,4.37
2023-09-29T10:52:23.873Z,4.37
2023-09-29T10:54:57.691Z,5.10
2023-09-29T10:57:26.222Z,4.27
2023-09-29T11:00:00.359Z,3.80
2023-09-29T11:02:37.815Z,4.70
2023-09-29T11:05:07.260Z,3.40
2023-09-29T11:07:51.702Z,3.73
2023-09-29T11:10:19.758Z,2.03
2023-09-29T11:12:50.092Z,6.90
2023-09-29T11:15:18.540Z,3.97
2023-09-29T11:17:50.501Z,5.17
2023-09-29T11:20:28.182Z,5.30
2023-09-29T11:23:00.748Z,2.73
2023-09-29T11:25:27.678Z,6.70
2023-09-29T11:27:54.423Z,4.63
2023-09-29T11:30:26.061Z,3.90
2023-09-29T11:32:53.896Z,4.10
2023-09-29T11:35:22.445Z,4.23
2023-09-29T11:37:49.135Z,4.03
2023-09-29T11:40:17.922Z,5.20
2023-09-29T11:42:46.320Z,8.03
2023-09-29T11:45:13.446Z,4.30
2023-09-29T11:47:41.855Z,8.03
2023-09-29T11:50:10.052Z,6.00
2023-09-29T11:52:40.701Z,9.07
2023-09-29T11:55:12.626Z,3.70
2023-09-29T11:57:42.483Z,3.63
2023-09-29T12:00:14.437Z,5.87
2023-09-29T12:02:41.741Z,10.73
2023-09-29T12:05:10.325Z,5.20
2023-09-29T12:07:36.990Z,8.10
2023-09-29T12:10:04.032Z,5.40
2023-09-29T12:12:33.207Z,10.07
2023-09-29T12:15:01.000Z,5.97
2023-09-29T12:17:27.879Z,8.17
2023-09-29T12:19:55.120Z,9.20
2023-09-29T12:22:21.961Z,7.67
2023-09-29T12:24:49.145Z,11.67
2023-09-29T12:27:15.929Z,9.00
2023-09-29T12:29:42.712Z,14.27
2023-09-29T12:32:09.543Z,10.43
2023-09-29T12:34:36.343Z,9.87
2023-09-29T12:37:03.361Z,16.67
2023-09-29T12:39:30.083Z,13.17
2023-09-29T12:41:56.876Z,15.27
2023-09-29T12:44:24.156Z,15.87
2023-09-29T12:46:53.640Z,14.17
2023-09-29T12:49:21.792Z,13.93
2023-09-29T12:51:59.920Z,14.20
2023-09-29T12:54:28.173Z,14.03
2023-09-29T12:57:02.257Z,17.57
2023-09-29T12:59:30.793Z,14.27
2023-09-29T13:01:57.572Z,13.30
2023-09-29T13:04:27.648Z,15.33
2023-09-29T13:06:54.354Z,14.87
2023-09-29T13:09:22.008Z,14.30
2023-09-29T13:11:52.120Z,19.03
2023-09-29T13:14:19.285Z,25.30
2023-09-29T13:16:46.161Z,17.33
2023-09-29T13:19:12.956Z,19.53
2023-09-29T13:21:40.702Z,22.60
2023-09-29T13:24:07.979Z,26.97
2023-09-29T13:26:34.828Z,25.53
2023-09-29T13:29:01.892Z,24.43
2023-09-29T13:31:28.596Z,26.33
2023-09-29T13:33:55.876Z,34.37
2023-09-29T13:36:22.893Z,35.90
2023-09-29T13:38:49.736Z,34.70
2023-09-29T13:41:16.507Z,35.60
2023-09-29T13:43:44.362Z,32.53
2023-09-29T13:46:11.151Z,30.40
2023-09-29T13:48:38.644Z,29.57
2023-09-29T13:51:07.464Z,36.93
2023-09-29T13:53:35.054Z,29.37
2023-09-29T13:56:06.045Z,47.43
2023-09-29T13:58:33.154Z,31.47
2023-09-29T14:01:00.267Z,35.33
2023-09-29T14:03:27.115Z,32.57
2023-09-29T14:05:53.930Z,35.57
2023-09-29T14:08:20.912Z,34.43
2023-09-29T14:10:48.306Z,28.03
2023-09-29T14:13:15.037Z,33.73
2023-09-29T14:15:41.706Z,33.13
2023-09-29T14:18:08.568Z,32.23
2023-09-29T14:20:36.775Z,37.50
2023-09-29T14:23:04.344Z,30.10
2023-09-29T14:25:31.215Z,33.10
2023-09-29T14:27:58.057Z,30.93
2023-09-29T14:30:25.576Z,32.33
2023-09-29T14:32:52.941Z,27.37
2023-09-29T14:35:19.706Z,23.10
2023-09-29T14:37:48.084Z,27.17
2023-09-29T14:40:15.050Z,28.03
2023-09-29T14:42:41.832Z,27.57
2023-09-29T14:45:10.378Z,23.47
2023-09-29T14:47:37.248Z,26.43
2023-09-29T14:50:04.498Z,25.57
2023-09-29T14:52:31.300Z,21.93
2023-09-29T14:54:59.807Z,26.63
2023-09-29T14:57:26.682Z,28.77
2023-09-29T14:59:53.433Z,29.07
2023-09-29T15:02:20.135Z,26.27
2023-09-29T15:07:18.402Z,17.77
2023-09-29T15:09:45.238Z,23.57
2023-09-29T15:12:11.950Z,20.63
2023-09-29T15:14:38.727Z,29.77
2023-09-29T15:17:05.543Z,25.30
2023-09-29T15:19:32.397Z,23.50
2023-09-29T15:21:59.138Z,21.43
2023-09-29T15:24:25.911Z,18.03
2023-09-29T15:26:53.588Z,17.93
2023-09-29T15:29:21.383Z,31.73
2023-09-29T15:31:49.142Z,21.97
2023-09-29T15:34:15.972Z,21.27
2023-09-29T15:36:42.676Z,19.87
2023-09-29T15:39:13.371Z,19.97
2023-09-29T15:41:40.946Z,16.10
2023-09-29T15:44:07.905Z,24.50
2023-09-29T15:46:34.659Z,15.00
2023-09-29T15:49:01.338Z,17.27
2023-09-29T15:51:28.077Z,13.20
2023-09-29T15:53:54.994Z,18.07
2023-09-29T15:56:21.888Z,16.53
2023-09-29T15:58:48.555Z,16.13
2023-09-29T16:01:15.421Z,14.07
2023-09-29T16:03:43.157Z,12.63
2023-09-29T16:06:10.050Z,14.10
2023-09-29T16:08:41.911Z,11.40
2023-09-29T16:11:08.737Z,13.07
2023-09-29T16:13:36.417Z,9.43
2023-09-29T16:16:04.613Z,8.27
2023-09-29T16:18:32.298Z,8.37
2023-09-29T16:21:03.716Z,10.10
2023-09-29T16:23:30.510Z,8.37
2023-09-29T16:25:57.287Z,7.73
2023-09-29T16:28:24.135Z,8.23
2023-09-29T16:30:51.952Z,6.83
2023-09-29T16:33:19.102Z,9.87
2023-09-29T16:35:45.904Z,9.90
2023-09-29T16:38:12.590Z,9.73
2023-09-29T16:40:39.712Z,7.70
2023-09-29T16:43:06.474Z,9.17
2023-09-29T16:45:33.315Z,10.27
2023-09-29T16:48:00.179Z,7.93
2023-09-29T16:50:27.238Z,8.73
2023-09-29T16:52:54.291Z,7.60
2023-09-29T16:55:21.016Z,6.23
2023-09-29T16:57:47.709Z,6.90
2023-09-29T17:00:15.759Z,7.07
2023-09-29T17:02:42.807Z,4.30
2023-09-29T17:05:09.985Z,4.63
2023-09-29T17:07:36.687Z,7.07
2023-09-29T17:10:05.009Z,4.00
2023-09-29T17:12:32.792Z,13.57
2023-09-29T17:15:01.429Z,22.10
2023-09-29T17:17:28.383Z,10.63
2023-09-29T17:19:55.130Z,5.47
2023-09-29T17:22:22.244Z,14.10
2023-09-29T17:24:48.961Z,8.90
2023-09-29T17:27:15.721Z,5.60
2023-09-29T17:29:42.469Z,5.80
2023-09-29T17:32:10.285Z,6.73
2023-09-29T17:34:37.719Z,4.57
2023-09-29T17:37:04.916Z,5.90
2023-09-29T17:39:31.891Z,3.23
2023-09-29T17:42:00.198Z,6.10
2023-09-29T17:44:26.941Z,6.67
2023-09-29T17:46:53.626Z,4.50
2023-09-29T17:49:20.497Z,5.73
2023-09-29T17:51:47.376Z,3.37
2023-09-29T17:54:14.558Z,3.63
2023-09-29T17:56:41.316Z,5.33
2023-09-29T17:59:08.038Z,5.47
2023-09-29T18:01:34.751Z,4.07
2023-09-29T18:04:01.672Z,4.07
2023-09-29T18:06:30.377Z,4.50
2023-09-29T18:08:57.705Z,3.87
2023-09-29T18:11:24.868Z,3.17
2023-09-29T18:13:51.831Z,4.10
2023-09-29T18:16:18.632Z,4.27
2023-09-29T18:18:46.609Z,4.50
2023-09-29T18:21:13.482Z,3.77
2023-09-29T18:23:40.466Z,3.03
2023-09-29T18:26:07.844Z,6.07
2023-09-29T18:28:35.456Z,3.90
2023-09-29T18:31:02.329Z,6.03
2023-09-29T18:33:29.274Z,4.17
2023-09-29T18:35:56.121Z,3.57
2023-09-29T18:38:22.891Z,3.90
2023-09-29T18:40:49.761Z,4.60
2023-09-29T18:43:16.433Z,4.13
2023-09-29T18:45:43.125Z,5.03
2023-09-29T18:48:10.379Z,6.07
2023-09-29T18:50:38.338Z,4.70
2023-09-29T18:53:06.432Z,5.90
2023-09-29T18:55:34.785Z,3.57
2023-09-29T18:58:01.859Z,4.70
2023-09-29T19:00:33.042Z,3.53
2023-09-29T19:03:00.389Z,3.03
2023-09-29T19:05:27.910Z,4.53
2023-09-29T19:07:54.695Z,3.47
2023-09-29T19:10:21.832Z,4.53
2023-09-29T19:12:48.754Z,3.70
2023-09-29T19:15:15.554Z,5.30
2023-09-29T19:17:42.484Z,4.80
2023-09-29T19:20:09.434Z,4.07
2023-09-29T19:22:36.201Z,5.50
2023-09-29T19:25:03.367Z,5.00
2023-09-29T19:27:30.595Z,6.73
2023-09-29T19:30:01.326Z,7.97
2023-09-29T19:32:29.658Z,4.83
2023-09-29T19:34:57.607Z,4.70
2023-09-29T19:37:24.369Z,3.77
2023-09-29T19:39:51.448Z,6.03
2023-09-29T19:42:22.659Z,3.97
2023-09-29T19:44:50.149Z,4.13
2023-09-29T19:47:16.904Z,5.73
2023-09-29T19:49:43.610Z,2.63
2023-09-29T19:52:10.849Z,5.17
2023-09-29T19:54:42.074Z,4.63
2023-09-29T19:57:08.837Z,3.87
2023-09-29T19:59:35.635Z,5.70
2023-09-29T20:02:03.779Z,5.63
2023-09-29T20:04:31.054Z,4.63
2023-09-29T20:06:59.523Z,4.57
2023-09-29T20:09:26.549Z,3.33
2023-09-29T20:11:54.144Z,2.90
2023-09-29T20:14:21.064Z,5.33
2023-09-29T20:16:48.051Z,4.67
2023-09-29T20:19:15.015Z,5.00
2023-09-29T20:21:42.280Z,3.40
2023-09-29T20:24:10.457Z,3.37
2023-09-29T20:26:38.656Z,3.43
2023-09-29T20:29:05.453Z,5.70
2023-09-29T20:31:32.815Z,3.77
2023-09-29T20:34:00.670Z,1.93
2023-09-29T20:36:30.445Z,1.43
2023-09-29T20:39:02.368Z,2.07
2023-09-29T20:41:29.147Z,1.17
2023-09-29T20:43:57.158Z,0.77
2023-09-29T20:46:24.140Z,1.10
2023-09-29T20:48:51.240Z,3.03
2023-09-29T20:51:18.072Z,0.90
2023-09-29T20:53:44.827Z,1.87
2023-09-29T20:56:12.525Z,1.60
2023-09-29T20:58:39.520Z,0.97
2023-09-29T21:01:06.581Z,2.63
2023-09-29T21:03:35.398Z,0.87
2023-09-29T21:06:02.482Z,3.13
2023-09-29T21:08:29.222Z,2.33
2023-09-29T21:10:57.564Z,2.00
2023-09-29T21:13:24.384Z,1.70
2023-09-29T21:15:53.958Z,2.17
2023-09-29T21:18:22.227Z,2.70
2023-09-29T21:20:53.866Z,2.00
2023-09-29T21:23:20.588Z,1.10
2023-09-29T21:25:48.177Z,2.07
2023-09-29T21:28:14.956Z,3.00
2023-09-29T21:30:44.937Z,1.17
2023-09-29T21:33:12.134Z,1.47
2023-09-29T21:35:39.165Z,3.57
2023-09-29T21:38:06.719Z,1.43
2023-09-29T21:40:34.240Z,3.57
2023-09-29T21:43:00.949Z,1.73
2023-09-29T21:45:28.000Z,2.07
2023-09-29T21:47:54.828Z,1.67
2023-09-29T21:50:22.745Z,1.63
2023-09-29T21:52:49.624Z,1.37
2023-09-29T21:55:16.365Z,1.40
2023-09-29T21:57:43.240Z,2.03
2023-09-29T22:00:16.641Z,2.47
2023-09-29T22:02:43.692Z,2.03
2023-09-29T22:05:16.878Z,1.33
2023-09-29T22:07:43.872Z,2.70
2023-09-29T22:10:15.304Z,2.77
2023-09-29T22:12:43.756Z,1.90
2023-09-29T22:15:12.989Z,1.97
2023-09-29T22:17:39.856Z,2.37
2023-09-29T22:20:10.303Z,2.70
2023-09-29T22:22:37.074Z,3.23
2023-09-29T22:25:04.218Z,2.43
2023-09-29T22:27:32.698Z,4.17
2023-09-29T22:30:02.760Z,3.03
2023-09-29T22:32:29.535Z,3.37
2023-09-29T22:34:56.216Z,4.80
2023-09-29T22:37:24.005Z,4.17
2023-09-29T22:39:52.808Z,2.90
2023-09-29T22:42:19.764Z,3.43
2023-09-29T22:44:47.745Z,4.20
2023-09-29T22:47:14.674Z,3.07
2023-09-29T22:49:42.139Z,4.07
2023-09-29T22:52:10.643Z,3.70
2023-09-29T22:54:38.003Z,3.13
2023-09-29T22:57:05.971Z,4.90
2023-09-29T22:59:33.310Z,2.93
2023-09-29T23:02:00.839Z,5.20
2023-09-29T23:04:27.869Z,3.03
2023-09-29T23:06:55.354Z,3.10
2023-09-29T23:09:26.034Z,2.67
2023-09-29T23:11:52.890Z,2.77
2023-09-29T23:14:19.835Z,3.77
2023-09-29T23:16:46.568Z,3.30
2023-09-29T23:19:14.526Z,3.40
2023-09-29T23:21:41.945Z,3.93
2023-09-29T23:24:08.794Z,4.80
2023-09-29T23:26:35.508Z,4.47
2023-09-29T23:29:02.278Z,3.07
2023-09-29T23:31:29.028Z,3.17
2023-09-29T23:33:57.028Z,4.03
2023-09-29T23:36:25.132Z,4.47
2023-09-29T23:38:53.463Z,2.30
2023-09-29T23:41:21.240Z,3.17
2023-09-29T23:43:48.300Z,3.90
2023-09-29T23:46:16.948Z,2.47
2023-09-29T23:48:44.658Z,2.67
2023-09-29T23:51:12.309Z,1.93
2023-09-29T23:53:40.606Z,2.13
2023-09-29T23:56:11.042Z,3.23
2023-09-29T23:58:38.293Z,7.20
